Airfield :
LOGIN :

Register | Disclaimer

   EN    FR    IT 

 










Legend :    VFR   Marginal VFR   IFR   Intensive IFR   Very Intensive IFR
Visi :
Ceiling :
>= 8 km
>= 3000ft
5 to 8 km
1000 to 3000 ft
1500m to 5 km
500 to 1000 ft
800 to 1500m
200 to 500 ft
< 800m
< 200 ft
Symbols :   Thunderstorms  Fog  Heavy snow  Heavy precipitations  Wind > 20 kt
SIGMETs :     Misc.  Thunderstorms  Icing  Turbulence  Mountain Waves  Volcanic Ashes






- Airport Elevation : 453 ft
- IATA code : SBK


LFRT - St Brieuc Armor

CURRENT METAR :
  • 281300Z AUTO 22010G21KT 190V260 6000 OVC010 12/11 Q1008

EXPIRED METARs :
  • 281230Z AUTO 22011KT 180V250 9999 OVC011 12/10 Q1008
  • 281200Z AUTO 22011KT 190V260 9999 OVC011 12/10 Q1009
  • 281130Z AUTO 23010KT 180V260 9999 OVC011 12/10 Q1009
  • 281100Z AUTO 22011KT 180V260 9999 BKN012 BKN018 OVC029 12/10 Q1009
  • 281030Z AUTO 22010KT 180V250 9999 BKN014 BKN030 OVC054 12/10 Q1009

Expired Forecast.



MET'MAP, your aeronautical weather chart ! - Copyright ORBIFLY December 2007 - Disclaimer

ORBIFLY MET'MAP TEAM :

Programming & Development : Alexandra Zaïnal
Concept & original design : Baudouin d'Aumeries
Assistance for programming : Marc-Olivier Méhu
Technical & hardware support : Manuel Goepfert

Contact : metmap@orbifly.com




SOURCES & CREDITS :

   NOAA